Flight Track Log - Related Links

Times and Time Zones

All times are in EDT time to prevent confusion due to time zone crossing. See the AAL963 flight status page for this flight to view local times or setup timezone preferences in your user account.

Time Position Orientation Groundspeed Altitude Reporting Facility
EDT Latitude Longitude Course Direction KTS MPH feet Rate Location/Type
Sat 09:18:22 PM 32.9390 -97.0560 345° North 2,000  Level FlightAware ADS-B
Sat 09:18:52 PM 32.9680 -97.0670 342° North 2,500 1,734 Climbing FlightAware ADS-B
Sat 09:19:07 PM 32.9820 -97.0720 343° North 2,700 1,767 Climbing FlightAware ADS-B
Sat 09:19:32 PM 33.0060 -97.0900 328° Northwest 3,500 1,790 Climbing FlightAware ADS-B
Sat 09:19:47 PM 33.0120 -97.1110 289° West 4,000 1,785 Climbing FlightAware ADS-B
Sat 09:20:17 PM 33.0080 -97.1560 264° West 5,400 1,779 Climbing FlightAware ADS-B
Sat 09:20:42 PM 33.0040 -97.1950 263° West 6,200 1,726 Climbing FlightAware ADS-B
Sat 09:21:12 PM 32.9960 -97.2380 258° West 7,200 1,717 Climbing FlightAware ADS-B
Sat 09:21:27 PM 32.9840 -97.2610 238° Southwest 7,700 1,701 Climbing FlightAware ADS-B
Sat 09:21:52 PM 32.9560 -97.2860 217° Southwest 8,600 1,692 Climbing FlightAware ADS-B
Sat 09:22:07 PM 32.9340 -97.2940 197° South 9,200 1,668 Climbing FlightAware ADS-B
Sat 09:22:47 PM 32.8780 -97.2890 176° South 10,500 1,645 Climbing FlightAware ADS-B
Sat 09:23:32 PM 32.8070 -97.2870 179° South 11,400 1,616 Climbing FlightAware ADS-B
Sat 09:24:02 PM 32.7600 -97.2710 164° South 11,900 1,665 Climbing FlightAware ADS-B
Sat 09:24:42 PM 32.7040 -97.2160 140° Southeast 13,100 1,722 Climbing FlightAware ADS-B
Sat 09:25:22 PM 32.6480 -97.1620 141° Southeast 14,200 1,712 Climbing FlightAware ADS-B
Sat 09:26:07 PM 32.5790 -97.0960 141° Southeast 15,600 1,721 Climbing FlightAware ADS-B
Sat 09:26:47 PM 32.5170 -97.0380 142° Southeast 16,900 1,692 Climbing FlightAware ADS-B
Sat 09:27:27 PM 32.4540 -96.9790 142° Southeast 18,200 1,636 Climbing FlightAware ADS-B
Sat 09:28:12 PM 32.3850 -96.9130 141° Southeast 19,500 1,551 Climbing FlightAware ADS-B
Sat 09:28:52 PM 32.3210 -96.8540 142° Southeast 20,500 1,471 Climbing FlightAware ADS-B
Sat 09:29:37 PM 32.2350 -96.7990 152° Southeast 21,500 1,452 Climbing FlightAware ADS-B
Sat 09:29:54 PM 32.1966 -96.7847 163° South 466 536 22,000 1,731 Climbing FlightAware ADS-B
Sat 09:30:29 PM 32.1252 -96.7576 162° South 465 535 23,000 1,568 Climbing FlightAware ADS-B
Sat 09:31:22 PM 32.0147 -96.7157 162° South 473 544 24,300 1,429 Climbing FlightAware ADS-B
Sat 09:31:53 PM 31.9496 -96.6910 162° South 478 550 25,000 1,548 Climbing FlightAware ADS-B
Sat 09:32:24 PM 31.8840 -96.6661 162° South 477 549 25,900 1,446 Climbing FlightAware ADS-B
Sat 09:32:42 PM 31.8490 -96.6520 161° South 26,300 1,269 Climbing FlightAware ADS-B
Sat 09:33:16 PM 31.7767 -96.6225 161° South 481 554 27,000 1,200 Climbing FlightAware ADS-B
Sat 09:33:17 PM 31.7790 -96.6230 350° North 562 647 27,000 1,200 Level FlightAware ADS-B
Sat 09:33:46 PM 31.7129 -96.5959 161° South 484 557 27,600 1,167 Climbing FlightAware ADS-B
Sat 09:33:53 PM 31.6970 -96.5890 160° South 713 821 27,700 1,091 Climbing FlightAware ADS-B
Sat 09:34:19 PM 31.6413 -96.5664 161° South 495 570 28,200 1,135 Climbing FlightAware ADS-B
Sat 09:34:30 PM 31.6190 -96.5580 162° South 509 586 28,400 1,355 Climbing FlightAware ADS-B
Sat 09:34:50 PM 31.5768 -96.5402 160° South 486 559 28,900 1,400 Climbing FlightAware ADS-B
Sat 09:35:00 PM 31.5560 -96.5320 161° South 477 549 29,100 1,355 Climbing FlightAware ADS-B
Sat 09:35:21 PM 31.5084 -96.5123 161° South 493 567 29,600 1,167 Climbing FlightAware ADS-B
Sat 09:35:36 PM 31.4790 -96.5010 162° South 492 566 29,800 968 Climbing FlightAware ADS-B
Sat 09:35:52 PM 31.4432 -96.4874 162° South 493 567 30,100 1,333 Climbing FlightAware ADS-B
Sat 09:36:12 PM 31.4030 -96.4720 162° South 475 547 30,600 1,400 Climbing FlightAware ADS-B
Sat 09:36:22 PM 31.3776 -96.4634 164° South 489 563 30,800 1,029 Climbing FlightAware ADS-B
Sat 09:36:47 PM 31.3240 -96.4440 163° South 469 540 31,200 938 Climbing FlightAware ADS-B
Sat 09:36:54 PM 31.3095 -96.4381 161° South 489 563 31,300 1,297 Climbing FlightAware ADS-B
Sat 09:37:24 PM 31.2480 -96.4150 162° South 481 554 32,000 1,548 Climbing FlightAware ADS-B
Sat 09:37:25 PM 31.2448 -96.4141 166° South 480 552 32,100 1,448 Climbing FlightAware ADS-B
Sat 09:37:53 PM 31.1860 -96.3870 158° South 485 558 32,700 1,200 Climbing FlightAware ADS-B
Sat 09:37:55 PM 31.1828 -96.3848 150° Southeast 485 558 32,700 581 Level FlightAware ADS-B
Sat 09:38:24 PM 31.1330 -96.3340 139° Southeast 485 558 33,000 581 Climbing FlightAware ADS-B
Sat 09:38:26 PM 31.1287 -96.3283 131° Southeast 516 594 33,000  Level FlightAware ADS-B
Sat 09:38:53 PM 31.0870 -96.2670 128° Southeast 513 590 33,000  Level FlightAware ADS-B
Sat 09:38:56 PM 31.0833 -96.2624 133° Southeast 519 597 33,000  Level FlightAware ADS-B
Sat 09:39:26 PM 31.0336 -96.2006 133° Southeast 516 594 33,000  Level FlightAware ADS-B
Sat 09:39:29 PM 31.0280 -96.1940 135° Southeast 509 586 33,000  Level FlightAware ADS-B
Sat 09:39:57 PM 30.9823 -96.1395 134° Southeast 513 590 33,000  Level FlightAware ADS-B
Sat 09:39:59 PM 30.9770 -96.1340 138° Southeast 526 605 33,000  Level FlightAware ADS-B
Sat 09:40:28 PM 30.9301 -96.0784 135° Southeast 517 595 33,000  Level FlightAware ADS-B
Sat 09:40:35 PM 30.9170 -96.0630 135° Southeast 534 615 33,000  Level FlightAware ADS-B
Sat 09:40:59 PM 30.8776 -96.0176 135° Southeast 514 592 33,000  Level FlightAware ADS-B
Sat 09:41:11 PM 30.8560 -95.9930 136° Southeast 528 608 33,000  Level FlightAware ADS-B
Sat 09:41:30 PM 30.8241 -95.9560 135° Southeast 517 595 33,000  Level FlightAware ADS-B
Sat 09:41:47 PM 30.7950 -95.9220 135° Southeast 522 601 33,000  Level FlightAware ADS-B
Sat 09:42:00 PM 30.7722 -95.8962 136° Southeast 523 602 33,000  Level FlightAware ADS-B
Sat 09:42:23 PM 30.7330 -95.8520 136° Southeast 510 587 33,000  Level FlightAware ADS-B
Sat 09:42:31 PM 30.7210 -95.8375 134° Southeast 516 594 33,000  Level FlightAware ADS-B
Sat 09:42:54 PM 30.6830 -95.7940 135° Southeast 505 581 33,000  Level FlightAware ADS-B
Sat 09:43:01 PM 30.6699 -95.7790 135° Southeast 515 593 33,000  Level FlightAware ADS-B
Sat 09:43:29 PM 30.6220 -95.7240 135° Southeast 498 573 33,000  Level FlightAware ADS-B
Sat 09:43:31 PM 30.6184 -95.7199 136° Southeast 515 593 33,000  Level FlightAware ADS-B
Sat 09:44:01 PM 30.5676 -95.6617 135° Southeast 509 586 33,000  Level FlightAware ADS-B
Sat 09:44:06 PM 30.5600 -95.6530 135° Southeast 518 596 33,000  Level FlightAware ADS-B
Sat 09:44:32 PM 30.5148 -95.6015 136° Southeast 517 595 33,000  Level FlightAware ADS-B
Sat 09:44:41 PM 30.4990 -95.5830 135° Southeast 554 638 33,000  Level FlightAware ADS-B
Sat 09:45:02 PM 30.4637 -95.5431 136° Southeast 516 594 33,000  Level FlightAware ADS-B
Sat 09:45:17 PM 30.4380 -95.5140 136° Southeast 527 606 33,000  Level FlightAware ADS-B
Sat 09:45:33 PM 30.4119 -95.4840 135° Southeast 516 594 33,000  Level FlightAware ADS-B
Sat 09:45:54 PM 30.3760 -95.4430 135° Southeast 533 613 33,000  Level FlightAware ADS-B
Sat 09:46:03 PM 30.3602 -95.4252 136° Southeast 518 596 33,000  Level FlightAware ADS-B
Sat 09:46:24 PM 30.3260 -95.3870 136° Southeast 564 649 33,000  Level FlightAware ADS-B
Sat 09:46:33 PM 30.3085 -95.3667 135° Southeast 519 597 33,000  Level FlightAware ADS-B
Sat 09:47:00 PM 30.2640 -95.3160 135° Southeast 521 600 33,000  Level FlightAware ADS-B
Sat 09:47:04 PM 30.2569 -95.3079 135° Southeast 515 593 33,000  Level FlightAware ADS-B
Sat 09:47:34 PM 30.2059 -95.2501 136° Southeast 509 586 33,000  Level FlightAware ADS-B
Sat 09:47:35 PM 30.2030 -95.2470 137° Southeast 519 597 33,000  Level FlightAware ADS-B
Sat 09:48:04 PM 30.1542 -95.1916 136° Southeast 512 589 33,000  Level FlightAware ADS-B
Sat 09:48:12 PM 30.1410 -95.1770 136° Southeast 531 611 33,000  Level FlightAware ADS-B
Sat 09:48:34 PM 30.1031 -95.1339 135° Southeast 507 583 33,000  Level FlightAware ADS-B
Sat 09:48:47 PM 30.0800 -95.1080 136° Southeast 509 586 33,000  Level FlightAware ADS-B
Sat 09:49:04 PM 30.0519 -95.0762 136° Southeast 515 593 33,000  Level FlightAware ADS-B
Sat 09:49:23 PM 30.0200 -95.0400 135° Southeast 511 588 33,000  Level FlightAware ADS-B
Sat 09:49:34 PM 30.0004 -95.0182 136° Southeast 514 592 33,000  Level FlightAware ADS-B
Sat 09:49:59 PM 29.9580 -94.9700 135° Southeast 531 611 33,000  Level FlightAware ADS-B
Sat 09:50:05 PM 29.9485 -94.9598 137° Southeast 512 589 33,000  Level FlightAware ADS-B
Sat 09:50:35 PM 29.8969 -94.9016 136° Southeast 519 597 33,000  Level FlightAware ADS-B
Sat 09:50:36 PM 29.8970 -94.9020 286° West 498 573 33,000  Level FlightAware ADS-B
Sat 09:51:05 PM 29.8460 -94.8450 136° Southeast 520 598 33,000  Level FlightAware ADS-B
Sat 09:51:36 PM 29.7939 -94.7864 136° Southeast 522 601 33,000  Level FlightAware ADS-B
Sat 09:51:41 PM 29.7840 -94.7760 138° Southeast 501 577 33,000  Level FlightAware ADS-B
Sat 09:52:06 PM 29.7427 -94.7293 136° Southeast 513 590 33,000  Level FlightAware ADS-B
Sat 09:52:12 PM 29.7340 -94.7200 137° Southeast 499 574 33,000  Level FlightAware ADS-B
Sat 09:52:36 PM 29.6913 -94.6718 136° Southeast 512 589 33,000  Level FlightAware ADS-B
Sat 09:52:42 PM 29.6840 -94.6640 137° Southeast 476 548 33,000  Level FlightAware ADS-B
Sat 09:53:06 PM 29.6399 -94.6144 136° Southeast 510 587 33,000  Level FlightAware ADS-B
Sat 09:53:17 PM 29.6210 -94.5930 135° Southeast 513 590 33,000  Level FlightAware ADS-B
Sat 09:53:36 PM 29.5881 -94.5569 136° Southeast 510 587 33,000  Level FlightAware ADS-B
Sat 09:53:45 PM 29.5720 -94.5390 136° Southeast 450 518 33,000  Level FlightAware ADS-B
Sat 09:54:06 PM 29.5362 -94.4992 136° Southeast 524 603 33,000  Level FlightAware ADS-B
Sat 09:54:37 PM 29.4851 -94.4424 136° Southeast 508 585 33,000  Level FlightAware ADS-B
Sat 09:54:41 PM 29.4770 -94.4330 135° Southeast 506 582 33,000  Level FlightAware ADS-B
Sat 09:55:07 PM 29.4334 -94.3853 136° Southeast 511 588 33,000  Level FlightAware ADS-B
Sat 09:55:12 PM 29.4260 -94.3770 136° Southeast 497 572 33,000  Level FlightAware ADS-B
Sat 09:55:38 PM 29.3812 -94.3274 136° Southeast 503 579 33,000  Level FlightAware ADS-B
Sat 09:55:48 PM 29.3650 -94.3090 135° Southeast 535 616 33,000  Level FlightAware ADS-B
Sat 09:56:08 PM 29.3297 -94.2699 136° Southeast 517 595 33,000  Level FlightAware ADS-B
Sat 09:56:18 PM 29.3150 -94.2530 135° Southeast 507 583 33,000  Level FlightAware ADS-B
Sat 09:56:38 PM 29.2793 -94.2134 136° Southeast 508 585 33,000  Level FlightAware ADS-B
Sat 09:57:08 PM 29.2283 -94.1564 136° Southeast 509 586 33,000  Level FlightAware ADS-B
Sat 09:57:45 PM 29.1654 -94.0868 136° Southeast 508 585 33,000  Level FlightAware ADS-B
Sat 09:58:19 PM 29.1294 -94.0500 136° Southeast 510 587 33,000  Level Houston Center
Sat 09:59:20 PM 29.0286 -93.9378 136° Southeast 508 585 33,000  Level Houston Center
Sat 10:00:21 PM 28.9150 -93.8142 136° Southeast 508 585 33,000  Level Houston Center
Sat 10:01:21 PM 28.8042 -93.6931 136° Southeast 509 586 33,000  Level Houston Center
Sat 10:02:22 PM 28.7008 -93.5808 136° Southeast 511 588 33,000  Level Houston Center
Sat 10:03:23 PM 28.6078 -93.4783 136° Southeast 512 589 33,000  Level Houston Center
Sat 10:04:24 PM 28.4958 -93.3550 136° Southeast 514 592 33,000  Level Houston Center
Sat 10:05:24 PM 28.3919 -93.2433 137° Southeast 515 593 33,000 -50 Level Houston Center
Sat 10:06:25 PM 28.2983 -93.1411 136° Southeast 516 594 32,900  Descending Houston Center
Sat 10:07:26 PM 28.1936 -93.0283 136° Southeast 519 597 33,000 15 Climbing Houston Center
Sat 10:12:55 PM 27.6021 -92.3909 136° Southeast 517 595 33,000 -16 Level FlightAware ADS-B
Sat 10:13:30 PM 27.5469 -92.3400 136° Southeast 518 596 32,900  Descending Houston Center
Sat 10:14:30 PM 27.4425 -92.2292 137° Southeast 519 597 33,000  Climbing Houston Center
Sat 10:15:31 PM 27.3378 -92.1197 137° Southeast 516 594 32,900 295 Descending Houston Center
Sat 10:16:32 PM 27.2325 -92.0097 137° Southeast 516 594 33,600 496 Climbing Houston Center
Sat 10:17:32 PM 27.1253 -91.9067 139° Southeast 511 588 33,900 149 Climbing Houston Center
Sat 10:18:33 PM 27.0117 -91.8172 145° Southeast 503 579 33,900  Level Houston Center
Sat 10:19:34 PM 26.8889 -91.7189 144° Southeast 504 580 33,900  Level Houston Center
Sat 10:20:34 PM 26.7658 -91.6192 144° Southeast 504 580 33,900 11 Level Houston Center
Sat 10:22:00 PM 26.6089 -91.4988 143° Southeast  Level FlightAware Approximate
Sat 10:29:00 PM 25.8524 -90.8924 145° Southeast  Level FlightAware Approximate
Sat 10:30:00 PM 25.7435 -90.8073 145° Southeast  Level FlightAware Approximate
Sat 10:31:00 PM 25.6345 -90.7225 145° Southeast  Level FlightAware Approximate
Sat 10:32:00 PM 25.5255 -90.6378 145° Southeast  Level FlightAware Approximate
Sat 10:33:00 PM 25.4165 -90.5532 145° Southeast  Level FlightAware Approximate
Sat 10:34:00 PM 25.3074 -90.4688 145° Southeast  Level FlightAware Approximate
Sat 10:35:00 PM 25.1982 -90.3846 145° Southeast  Level FlightAware Approximate
Sat 10:36:00 PM 25.0890 -90.3005 145° Southeast  Level FlightAware Approximate
Sat 10:37:00 PM 24.9797 -90.2165 145° Southeast  Level FlightAware Approximate
Sat 10:38:00 PM 24.8705 -90.1327 145° Southeast  Level FlightAware Approximate
Sat 10:39:00 PM 24.7611 -90.0490 145° Southeast  Level FlightAware Approximate
Sat 10:40:00 PM 24.6517 -89.9655 145° Southeast  Level FlightAware Approximate
Sat 10:41:00 PM 24.5423 -89.8822 145° Southeast  Level FlightAware Approximate
Sat 10:42:00 PM 24.4341 -89.7972 146° Southeast  Level FlightAware Approximate
Sat 10:43:00 PM 24.3234 -89.7161 146° Southeast  Level FlightAware Approximate
Sat 10:44:00 PM 24.2126 -89.6352 146° Southeast  Level FlightAware Approximate
Sat 10:45:00 PM 24.1018 -89.5544 146° Southeast  Level FlightAware Approximate
Sat 10:46:00 PM 23.9917 -89.4724 145° Southeast  Level FlightAware Approximate
Sat 10:47:00 PM 23.8824 -89.3893 145° Southeast  Level FlightAware Approximate
Sat 10:47:17 PM 23.7220 -89.2330 145° Southeast 35,000  Level FlightAware ADS-B
Sat 10:48:02 PM 23.6430 -89.1580 139° Southeast 35,000 10 Level FlightAware ADS-B
Sat 10:48:37 PM 23.5740 -89.0940 140° Southeast 35,000 10 Level FlightAware ADS-B
Sat 10:49:22 PM 23.4990 -89.0240 139° Southeast 35,000 10 Level FlightAware ADS-B
Sat 10:50:07 PM 23.4120 -88.9430 139° Southeast 35,000 10 Level FlightAware ADS-B
Sat 10:50:47 PM 23.3400 -88.8760 139° Southeast 35,000 10 Level FlightAware ADS-B
Sat 10:51:32 PM 23.2600 -88.8010 139° Southeast 35,000 10 Level FlightAware ADS-B
Sat 10:52:12 PM 23.1870 -88.7340 140° Southeast 35,000 10 Level FlightAware ADS-B
Sat 10:52:52 PM 23.1150 -88.6680 140° Southeast 35,000 10 Level FlightAware ADS-B
Sat 10:53:37 PM 23.0310 -88.5900 139° Southeast 35,000 10 Level FlightAware ADS-B
Sat 10:54:17 PM 22.9600 -88.5250 140° Southeast 35,000 10 Level FlightAware ADS-B
Sat 10:55:02 PM 22.8800 -88.4510 140° Southeast 35,000 10 Level FlightAware ADS-B
Sat 10:55:42 PM 22.8080 -88.3850 140° Southeast 35,000 10 Level FlightAware ADS-B
Sat 10:56:22 PM 22.7370 -88.3190 139° Southeast 35,000 10 Level FlightAware ADS-B
Sat 10:57:07 PM 22.6530 -88.2410 139° Southeast 35,000 10 Level FlightAware ADS-B
Sat 10:57:47 PM 22.5800 -88.1750 140° Southeast 35,000 10 Level FlightAware ADS-B
Sat 10:58:32 PM 22.5010 -88.1030 140° Southeast 35,000 10 Level FlightAware ADS-B
Sat 10:59:12 PM 22.4310 -88.0380 139° Southeast 35,000 10 Level FlightAware ADS-B
Sat 10:59:52 PM 22.3570 -87.9710 140° Southeast 35,000 10 Level FlightAware ADS-B
Sat 11:00:37 PM 22.2750 -87.8960 140° Southeast 35,000 10 Level FlightAware ADS-B
Sat 11:01:17 PM 22.2040 -87.8310 140° Southeast 35,000 10 Level FlightAware ADS-B
Sat 11:02:02 PM 22.1250 -87.7590 140° Southeast 35,000 10 Level FlightAware ADS-B
Sat 11:02:42 PM 22.0530 -87.6940 140° Southeast 35,000 10 Level FlightAware ADS-B
Sat 11:03:22 PM 21.9790 -87.6270 140° Southeast 35,000 10 Level FlightAware ADS-B
Sat 11:04:07 PM 21.8990 -87.5540 140° Southeast 35,000 10 Level FlightAware ADS-B
Sat 11:04:47 PM 21.8230 -87.4850 140° Southeast 35,000 10 Level FlightAware ADS-B
Sat 11:05:32 PM 21.7460 -87.4150 140° Southeast 35,000 10 Level FlightAware ADS-B
Sat 11:06:12 PM 21.6720 -87.3490 140° Southeast 35,000 10 Level FlightAware ADS-B
Sat 11:06:52 PM 21.6000 -87.2840 140° Southeast 35,000 10 Level FlightAware ADS-B
Sat 11:07:37 PM 21.5180 -87.2100 140° Southeast 35,000 10 Level FlightAware ADS-B
Sat 11:08:17 PM 21.4470 -87.1460 140° Southeast 35,000 10 Level FlightAware ADS-B
Sat 11:08:57 PM 21.3730 -87.0800 140° Southeast 35,000 10 Level FlightAware ADS-B
Sat 11:09:42 PM 21.2950 -87.0100 140° Southeast 35,000 10 Level FlightAware ADS-B
Sat 11:10:22 PM 21.2210 -86.9430 140° Southeast 35,000 10 Level FlightAware ADS-B
Sat 11:11:07 PM 21.1410 -86.8720 140° Southeast 35,000 10 Level FlightAware ADS-B
Sat 11:11:47 PM 21.0670 -86.8060 140° Southeast 35,000 10 Level FlightAware ADS-B
Sat 11:12:32 PM 20.9860 -86.7330 140° Southeast 35,000 10 Level FlightAware ADS-B
Sat 11:13:12 PM 20.9180 -86.6730 141° Southeast 35,000 10 Level FlightAware ADS-B
Sat 11:13:52 PM 20.8400 -86.6030 140° Southeast 35,000 10 Level FlightAware ADS-B
Sat 11:14:37 PM 20.7570 -86.5300 141° Southeast 35,000 10 Level FlightAware ADS-B
Sat 11:15:17 PM 20.6850 -86.4650 140° Southeast 35,000 10 Level FlightAware ADS-B
Sat 11:17:00 PM 20.5168 -86.2996 137° Southeast  Level FlightAware Approximate
Sat 11:18:00 PM 20.4198 -86.2023 137° Southeast  Level FlightAware Approximate
Sat 11:19:00 PM 20.3227 -86.1052 137° Southeast  Level FlightAware Approximate
Sat 11:20:00 PM 20.2256 -86.0082 137° Southeast  Level FlightAware Approximate
Sat 11:21:00 PM 20.1284 -85.9113 137° Southeast  Level FlightAware Approximate
Sat 11:22:00 PM 20.0311 -85.8145 137° Southeast  Level FlightAware Approximate
Sat 11:23:00 PM 19.9343 -85.7173 137° Southeast  Level FlightAware Approximate
Sat 11:24:00 PM 19.8373 -85.6203 137° Southeast  Level FlightAware Approximate
Sat 11:25:00 PM 19.7404 -85.5234 137° Southeast  Level FlightAware Approximate
Sat 11:26:00 PM 19.6433 -85.4266 137° Southeast  Level FlightAware Approximate
Sat 11:27:00 PM 19.5462 -85.3299 137° Southeast  Level FlightAware Approximate
Sat 11:28:00 PM 19.4490 -85.2334 137° Southeast  Level FlightAware Approximate
Sat 11:29:00 PM 19.3518 -85.1370 137° Southeast  Level FlightAware Approximate
Sat 11:30:00 PM 19.2545 -85.0408 137° Southeast  Level FlightAware Approximate
Sat 11:31:00 PM 19.1571 -84.9446 137° Southeast  Level FlightAware Approximate
Sat 11:32:00 PM 19.0597 -84.8485 137° Southeast  Level FlightAware Approximate
Sat 11:33:00 PM 18.9623 -84.7526 137° Southeast  Level FlightAware Approximate
Sat 11:34:00 PM 18.8648 -84.6568 137° Southeast  Level FlightAware Approximate
Sat 11:35:00 PM 18.7673 -84.5611 137° Southeast  Level FlightAware Approximate
Sat 11:36:00 PM 18.6697 -84.4655 137° Southeast  Level FlightAware Approximate
Sat 11:37:00 PM 18.5721 -84.3700 137° Southeast  Level FlightAware Approximate
Sat 11:38:00 PM 18.4744 -84.2746 137° Southeast  Level FlightAware Approximate
Sat 11:39:00 PM 18.3772 -84.1787 137° Southeast  Level FlightAware Approximate
Sat 11:40:00 PM 18.2799 -84.0831 137° Southeast  Level FlightAware Approximate
Sat 11:41:00 PM 18.1825 -83.9874 137° Southeast  Level FlightAware Approximate
Sat 11:42:00 PM 18.0851 -83.8920 137° Southeast  Level FlightAware Approximate
Sat 11:43:00 PM 17.9877 -83.7966 137° Southeast  Level FlightAware Approximate
Sat 11:44:00 PM 17.8902 -83.7013 137° Southeast  Level FlightAware Approximate
Sat 11:45:00 PM 17.7927 -83.6061 137° Southeast  Level FlightAware Approximate
Sat 11:46:00 PM 17.6951 -83.5111 137° Southeast  Level FlightAware Approximate
Sat 11:47:00 PM 17.5975 -83.4161 137° Southeast  Level FlightAware Approximate
Sat 11:48:00 PM 17.4998 -83.3212 137° Southeast  Level FlightAware Approximate
Sat 11:49:00 PM 17.4021 -83.2265 137° Southeast  Level FlightAware Approximate
Sat 11:50:00 PM 17.3043 -83.1318 137° Southeast  Level FlightAware Approximate
Sat 11:51:00 PM 17.2065 -83.0372 137° Southeast  Level FlightAware Approximate
Sat 11:52:00 PM 17.1087 -82.9428 137° Southeast  Level FlightAware Approximate
Sat 11:53:00 PM 17.0108 -82.8484 137° Southeast  Level FlightAware Approximate
Sat 11:54:00 PM 16.9128 -82.7542 137° Southeast  Level FlightAware Approximate
Sat 11:55:00 PM 16.8148 -82.6600 137° Southeast  Level FlightAware Approximate
Sat 11:56:00 PM 16.7168 -82.5659 137° Southeast  Level FlightAware Approximate
Sat 11:57:00 PM 16.6187 -82.4720 137° Southeast  Level FlightAware Approximate
Sat 11:58:00 PM 16.5206 -82.3781 137° Southeast  Level FlightAware Approximate
Sat 11:59:00 PM 16.4225 -82.2843 137° Southeast  Level FlightAware Approximate
Sun 12:00:00 AM 16.3243 -82.1906 138° Southeast  Level FlightAware Approximate
Sun 12:01:00 AM 16.2257 -82.0974 138° Southeast  Level FlightAware Approximate
Sun 12:02:00 AM 16.1271 -82.0043 138° Southeast  Level FlightAware Approximate
Sun 12:03:00 AM 16.0284 -81.9114 138° Southeast  Level FlightAware Approximate
Sun 12:04:00 AM 15.9297 -81.8185 138° Southeast  Level FlightAware Approximate
Sun 12:05:00 AM 15.8309 -81.7257 138° Southeast  Level FlightAware Approximate
Sun 12:06:00 AM 15.7321 -81.6330 138° Southeast  Level FlightAware Approximate
Sun 12:07:00 AM 15.6332 -81.5404 138° Southeast  Level FlightAware Approximate
Sun 12:08:00 AM 15.5344 -81.4479 138° Southeast  Level FlightAware Approximate
Sun 12:09:00 AM 15.4354 -81.3554 138° Southeast  Level FlightAware Approximate
Sun 12:10:00 AM 15.3365 -81.2631 138° Southeast  Level FlightAware Approximate
Sun 12:11:00 AM 15.2375 -81.1708 138° Southeast  Level FlightAware Approximate
Sun 12:12:00 AM 15.1384 -81.0787 138° Southeast  Level FlightAware Approximate
Sun 12:13:00 AM 15.0397 -80.9869 138° Southeast  Level FlightAware Approximate
Sun 12:14:00 AM 14.9410 -80.8952 138° Southeast  Level FlightAware Approximate
Sun 12:15:00 AM 14.8422 -80.8035 138° Southeast  Level FlightAware Approximate
Sun 12:16:00 AM 14.7434 -80.7119 138° Southeast  Level FlightAware Approximate
Sun 12:17:00 AM 14.6446 -80.6205 138° Southeast  Level FlightAware Approximate
Sun 12:18:00 AM 14.5457 -80.5291 138° Southeast  Level FlightAware Approximate
Sun 12:19:00 AM 14.4468 -80.4377 138° Southeast  Level FlightAware Approximate
Sun 12:20:00 AM 14.3478 -80.3465 138° Southeast  Level FlightAware Approximate
Sun 12:21:00 AM 14.2488 -80.2553 138° Southeast  Level FlightAware Approximate
Sun 12:22:00 AM 14.1498 -80.1643 138° Southeast  Level FlightAware Approximate
Sun 12:23:00 AM 14.0508 -80.0733 138° Southeast  Level FlightAware Approximate
Sun 12:24:00 AM 13.9517 -79.9823 138° Southeast  Level FlightAware Approximate
Sun 12:25:00 AM 13.8526 -79.8915 138° Southeast  Level FlightAware Approximate
Sun 12:26:00 AM 13.7534 -79.8007 138° Southeast  Level FlightAware Approximate
Sun 12:27:00 AM 13.6542 -79.7101 138° Southeast  Level FlightAware Approximate
Sun 12:28:00 AM 13.5550 -79.6194 138° Southeast  Level FlightAware Approximate
Sun 12:29:00 AM 13.4558 -79.5289 138° Southeast  Level FlightAware Approximate
Sun 12:30:00 AM 13.3565 -79.4384 138° Southeast  Level FlightAware Approximate
Sun 12:31:00 AM 13.2572 -79.3481 138° Southeast  Level FlightAware Approximate
Sun 12:32:00 AM 13.1578 -79.2577 138° Southeast  Level FlightAware Approximate
Sun 12:33:00 AM 13.0584 -79.1675 139° Southeast  Level FlightAware Approximate
Sun 12:34:00 AM 12.9590 -79.0773 139° Southeast  Level FlightAware Approximate
Sun 12:35:00 AM 12.8596 -78.9872 139° Southeast  Level FlightAware Approximate
Sun 12:36:00 AM 12.7601 -78.8972 139° Southeast  Level FlightAware Approximate
Sun 12:37:00 AM 12.6606 -78.8073 139° Southeast  Level FlightAware Approximate
Sun 12:38:00 AM 12.5611 -78.7174 139° Southeast  Level FlightAware Approximate
Sun 12:39:00 AM 12.4615 -78.6276 139° Southeast  Level FlightAware Approximate
Sun 12:40:00 AM 12.3619 -78.5378 139° Southeast  Level FlightAware Approximate
Sun 12:41:00 AM 12.2623 -78.4482 139° Southeast  Level FlightAware Approximate
Sun 12:42:00 AM 12.1627 -78.3585 139° Southeast  Level FlightAware Approximate
Sun 12:43:00 AM 12.0630 -78.2690 139° Southeast  Level FlightAware Approximate
Sun 12:44:00 AM 11.9633 -78.1795 139° Southeast  Level FlightAware Approximate
Sun 12:45:00 AM 11.8636 -78.0901 139° Southeast  Level FlightAware Approximate
Sun 12:46:00 AM 11.7638 -78.0008 139° Southeast  Level FlightAware Approximate
Sun 12:47:00 AM 11.6640 -77.9115 139° Southeast  Level FlightAware Approximate
Sun 12:48:00 AM 11.5642 -77.8223 139° Southeast  Level FlightAware Approximate
Sun 12:48:12 AM 10.9610 -77.4050 139° Southeast 35,000  Level FlightAware ADS-B
Sun 12:48:52 AM 10.8920 -77.3430 139° Southeast 35,000 13 Level FlightAware ADS-B
Sun 12:49:47 AM 10.8000 -77.2560 137° Southeast 35,000 13 Level FlightAware ADS-B
Sun 12:50:22 AM 10.7490 -77.2090 138° Southeast 35,000 14 Level FlightAware ADS-B
Sun 12:51:57 AM 10.5820 -77.0540 138° Southeast 35,000 14 Level FlightAware ADS-B
Sun 12:52:32 AM 10.5230 -76.9990 137° Southeast 35,000 14 Level FlightAware ADS-B
Sun 12:53:22 AM 10.4430 -76.9240 137° Southeast 35,000 14 Level FlightAware ADS-B
Sun 12:53:52 AM 10.3900 -76.8750 138° Southeast 35,000 14 Level FlightAware ADS-B
Sun 12:54:42 AM 10.3060 -76.7970 138° Southeast 35,000 14 Level FlightAware ADS-B
Sun 12:55:22 AM 10.2450 -76.7400 137° Southeast 35,000 14 Level FlightAware ADS-B
Sun 12:56:07 AM 10.1620 -76.6640 138° Southeast 35,000 14 Level FlightAware ADS-B
Sun 12:56:47 AM 10.0960 -76.6030 138° Southeast 35,000 14 Level FlightAware ADS-B
Sun 12:57:27 AM 10.0300 -76.5420 138° Southeast 35,000 14 Level FlightAware ADS-B
Sun 12:58:17 AM 9.9440 -76.4620 137° Southeast 35,000 14 Level FlightAware ADS-B
Sun 12:59:07 AM 9.8640 -76.3890 138° Southeast 35,000 14 Level FlightAware ADS-B
Sun 12:59:52 AM 9.7800 -76.3110 138° Southeast 35,000 14 Level FlightAware ADS-B
Sun 01:00:32 AM 9.7120 -76.2480 138° Southeast 35,000 14 Level FlightAware ADS-B
Sun 01:01:12 AM 9.6490 -76.1900 138° Southeast 35,000 14 Level FlightAware ADS-B
Sun 01:03:00 AM 9.4714 -76.0281 138° Southeast  Level FlightAware Approximate
Sun 01:04:00 AM 9.3727 -75.9382 138° Southeast  Level FlightAware Approximate
Sun 01:05:00 AM 9.2740 -75.8484 138° Southeast  Level FlightAware Approximate
Sun 01:06:00 AM 9.1753 -75.7586 138° Southeast  Level FlightAware Approximate
Sun 01:07:00 AM 9.0765 -75.6689 138° Southeast  Level FlightAware Approximate
Sun 01:08:00 AM 8.9778 -75.5792 138° Southeast  Level FlightAware Approximate
Sun 01:09:00 AM 8.8790 -75.4896 138° Southeast  Level FlightAware Approximate
Sun 01:10:00 AM 8.7801 -75.4000 138° Southeast  Level FlightAware Approximate
Sun 01:11:00 AM 8.6813 -75.3105 138° Southeast  Level FlightAware Approximate
Sun 01:12:00 AM 8.5824 -75.2210 138° Southeast  Level FlightAware Approximate
Sun 01:13:00 AM 8.4836 -75.1316 138° Southeast  Level FlightAware Approximate
Sun 01:14:00 AM 8.3847 -75.0422 138° Southeast  Level FlightAware Approximate
Sun 01:15:00 AM 8.2857 -74.9528 138° Southeast  Level FlightAware Approximate
Sun 01:16:00 AM 8.1868 -74.8635 138° Southeast  Level FlightAware Approximate
Sun 01:17:00 AM 8.0878 -74.7743 138° Southeast  Level FlightAware Approximate
Sun 01:18:00 AM 7.9889 -74.6851 138° Southeast  Level FlightAware Approximate
Sun 01:19:00 AM 7.8899 -74.5959 138° Southeast  Level FlightAware Approximate
Sun 01:20:00 AM 7.7908 -74.5068 138° Southeast  Level FlightAware Approximate
Sun 01:21:00 AM 7.6921 -74.4165 138° Southeast  Level FlightAware Approximate
Sun 01:22:00 AM 7.5938 -74.3266 138° Southeast  Level FlightAware Approximate
Sun 01:23:00 AM 7.4954 -74.2367 138° Southeast  Level FlightAware Approximate
Sun 01:24:00 AM 7.3971 -74.1469 138° Southeast  Level FlightAware Approximate
Sun 01:25:00 AM 7.2987 -74.0572 138° Southeast  Level FlightAware Approximate
Sun 01:26:00 AM 7.2004 -73.9674 138° Southeast  Level FlightAware Approximate
Sun 01:27:00 AM 7.1020 -73.8777 138° Southeast  Level FlightAware Approximate
Sun 01:28:00 AM 7.0012 -73.7916 152° Southeast  Level FlightAware Approximate
Sun 01:29:00 AM 6.8847 -73.7281 152° Southeast  Level FlightAware Approximate
Sun 01:30:00 AM 6.7681 -73.6648 152° Southeast  Level FlightAware Approximate
Sun 01:31:00 AM 6.6516 -73.6014 152° Southeast  Level FlightAware Approximate
Sun 01:32:00 AM 6.5351 -73.5381 152° Southeast  Level FlightAware Approximate
Sun 01:33:00 AM 6.4185 -73.4748 152° Southeast  Level FlightAware Approximate
Sun 01:34:00 AM 6.3020 -73.4115 152° Southeast  Level FlightAware Approximate
Sun 01:35:00 AM 6.1854 -73.3483 152° Southeast  Level FlightAware Approximate
Sun 01:36:00 AM 6.0688 -73.2852 152° Southeast  Level FlightAware Approximate
Sun 01:37:00 AM 5.9522 -73.2220 152° Southeast  Level FlightAware Approximate
Sun 01:38:00 AM 5.8356 -73.1589 152° Southeast  Level FlightAware Approximate
Sun 01:39:00 AM 5.7190 -73.0958 152° Southeast  Level FlightAware Approximate
Sun 01:40:00 AM 5.6023 -73.0328 152° Southeast  Level FlightAware Approximate
Sun 01:41:00 AM 5.4857 -72.9698 152° Southeast  Level FlightAware Approximate
Sun 01:42:00 AM 5.3691 -72.9068 152° Southeast  Level FlightAware Approximate
Sun 01:43:00 AM 5.2524 -72.8438 152° Southeast  Level FlightAware Approximate
Sun 01:44:00 AM 5.1358 -72.7808 152° Southeast  Level FlightAware Approximate
Sun 01:45:00 AM 5.0191 -72.7179 152° Southeast  Level FlightAware Approximate
Sun 01:46:00 AM 4.9025 -72.6550 152° Southeast  Level FlightAware Approximate
Sun 01:47:00 AM 4.7858 -72.5921 152° Southeast  Level FlightAware Approximate
Sun 01:48:00 AM 4.6691 -72.5293 152° Southeast  Level FlightAware Approximate
Sun 01:49:00 AM 4.5524 -72.4664 152° Southeast  Level FlightAware Approximate
Sun 01:50:00 AM 4.4358 -72.4036 152° Southeast  Level FlightAware Approximate
Sun 01:51:00 AM 4.3191 -72.3408 152° Southeast  Level FlightAware Approximate
Sun 01:52:00 AM 4.2024 -72.2780 152° Southeast  Level FlightAware Approximate
Sun 01:53:00 AM 4.0857 -72.2152 152° Southeast  Level FlightAware Approximate
Sun 01:54:00 AM 3.9690 -72.1525 152° Southeast  Level FlightAware Approximate
Sun 01:55:00 AM 3.8581 -72.0803 145° Southeast  Level FlightAware Approximate
Sun 01:56:00 AM 3.7499 -72.0041 145° Southeast  Level FlightAware Approximate
Sun 01:57:00 AM 3.6418 -71.9279 145° Southeast  Level FlightAware Approximate
Sun 01:58:00 AM 3.5336 -71.8517 145° Southeast  Level FlightAware Approximate
Sun 01:59:00 AM 3.4255 -71.7756 145° Southeast  Level FlightAware Approximate
Sun 02:00:00 AM 3.3173 -71.6994 145° Southeast  Level FlightAware Approximate
Sun 02:01:00 AM 3.2092 -71.6233 145° Southeast  Level FlightAware Approximate
Sun 02:02:00 AM 3.1010 -71.5472 145° Southeast  Level FlightAware Approximate
Sun 02:03:00 AM 2.9928 -71.4711 145° Southeast  Level FlightAware Approximate
Sun 02:04:00 AM 2.8846 -71.3951 145° Southeast  Level FlightAware Approximate
Sun 02:05:00 AM 2.7764 -71.3190 145° Southeast  Level FlightAware Approximate
Sun 02:06:00 AM 2.6682 -71.2430 145° Southeast  Level FlightAware Approximate
Sun 02:07:00 AM 2.5600 -71.1669 145° Southeast  Level FlightAware Approximate
Sun 02:08:00 AM 2.4519 -71.0908 145° Southeast  Level FlightAware Approximate
Sun 02:09:00 AM 2.3438 -71.0146 145° Southeast  Level FlightAware Approximate
Sun 02:10:00 AM 2.2357 -70.9385 145° Southeast  Level FlightAware Approximate
Sun 02:11:00 AM 2.1276 -70.8624 145° Southeast  Level FlightAware Approximate
Sun 02:12:00 AM 2.0194 -70.7863 145° Southeast  Level FlightAware Approximate
Sun 02:13:00 AM 1.9113 -70.7102 145° Southeast  Level FlightAware Approximate
Sun 02:14:00 AM 1.8032 -70.6341 145° Southeast  Level FlightAware Approximate
Sun 02:15:00 AM 1.6951 -70.5580 145° Southeast  Level FlightAware Approximate
Sun 02:16:00 AM 1.5869 -70.4820 145° Southeast  Level FlightAware Approximate
Sun 02:17:00 AM 1.4788 -70.4059 145° Southeast  Level FlightAware Approximate
Sun 02:18:00 AM 1.3706 -70.3299 145° Southeast  Level FlightAware Approximate
Sun 02:19:00 AM 1.2625 -70.2538 145° Southeast  Level FlightAware Approximate
Sun 02:20:00 AM 1.1612 -70.1691 138° Southeast  Level FlightAware Approximate
Sun 02:21:00 AM 1.0625 -70.0812 138° Southeast  Level FlightAware Approximate
Sun 02:22:00 AM 0.9638 -69.9932 138° Southeast  Level FlightAware Approximate
Sun 02:23:00 AM 0.8650 -69.9053 138° Southeast  Level FlightAware Approximate
Sun 02:24:00 AM 0.7663 -69.8174 138° Southeast  Level FlightAware Approximate
Sun 02:25:00 AM 0.6675 -69.7295 138° Southeast  Level FlightAware Approximate
Sun 02:26:00 AM 0.5688 -69.6416 138° Southeast  Level FlightAware Approximate
Sun 02:27:00 AM 0.4701 -69.5537 138° Southeast  Level FlightAware Approximate
Sun 02:28:00 AM 0.3713 -69.4658 138° Southeast  Level FlightAware Approximate
Sun 02:29:00 AM 0.2726 -69.3779 138° Southeast  Level FlightAware Approximate
Sun 02:30:00 AM 0.1738 -69.2900 138° Southeast  Level FlightAware Approximate
Sun 02:31:00 AM 0.0751 -69.2021 138° Southeast  Level FlightAware Approximate
Sun 02:32:00 AM -0.0236 -69.1142 138° Southeast  Level FlightAware Approximate
Sun 02:33:00 AM -0.1224 -69.0263 138° Southeast  Level FlightAware Approximate
Sun 02:34:00 AM -0.2211 -68.9384 138° Southeast  Level FlightAware Approximate
Sun 02:35:00 AM -0.3199 -68.8505 138° Southeast  Level FlightAware Approximate
Sun 02:36:00 AM -0.4186 -68.7626 138° Southeast  Level FlightAware Approximate
Sun 02:37:00 AM -0.5173 -68.6747 138° Southeast  Level FlightAware Approximate
Sun 02:38:00 AM -0.6161 -68.5868 138° Southeast  Level FlightAware Approximate
Sun 02:39:00 AM -0.7148 -68.4989 138° Southeast  Level FlightAware Approximate
Sun 02:40:00 AM -0.8136 -68.4110 138° Southeast  Level FlightAware Approximate
Sun 02:41:00 AM -0.9123 -68.3231 138° Southeast  Level FlightAware Approximate
Sun 02:42:00 AM -1.0110 -68.2352 138° Southeast  Level FlightAware Approximate
Sun 02:43:00 AM -1.1098 -68.1473 138° Southeast  Level FlightAware Approximate
Sun 02:44:00 AM -1.2085 -68.0593 138° Southeast  Level FlightAware Approximate
Sun 02:45:00 AM -1.3072 -67.9714 138° Southeast  Level FlightAware Approximate
Sun 02:46:00 AM -1.4059 -67.8835 138° Southeast  Level FlightAware Approximate
Sun 02:47:00 AM -1.5046 -67.7955 138° Southeast  Level FlightAware Approximate
Sun 02:48:00 AM -1.6034 -67.7076 138° Southeast  Level FlightAware Approximate
Sun 02:49:00 AM -1.7021 -67.6196 138° Southeast  Level FlightAware Approximate
Sun 02:50:00 AM -1.8008 -67.5316 138° Southeast  Level FlightAware Approximate
Sun 02:51:00 AM -1.8995 -67.4436 138° Southeast  Level FlightAware Approximate
Sun 02:52:00 AM -1.9982 -67.3556 138° Southeast  Level FlightAware Approximate
Sun 02:53:00 AM -2.0969 -67.2676 138° Southeast  Level FlightAware Approximate
Sun 02:54:00 AM -2.1955 -67.1796 138° Southeast  Level FlightAware Approximate
Sun 02:55:00 AM -2.2942 -67.0916 138° Southeast  Level FlightAware Approximate
Sun 02:56:00 AM -2.3929 -67.0035 138° Southeast  Level FlightAware Approximate
Sun 02:57:00 AM -2.4916 -66.9155 138° Southeast  Level FlightAware Approximate
Sun 02:58:00 AM -2.5903 -66.8274 138° Southeast  Level FlightAware Approximate
Sun 02:59:00 AM -2.6889 -66.7393 138° Southeast  Level FlightAware Approximate
Sun 03:00:00 AM -2.7876 -66.6512 138° Southeast  Level FlightAware Approximate
Sun 03:01:00 AM -2.8862 -66.5631 138° Southeast  Level FlightAware Approximate
Sun 03:02:00 AM -2.9848 -66.4750 138° Southeast  Level FlightAware Approximate
Sun 03:03:00 AM -3.0835 -66.3868 138° Southeast  Level FlightAware Approximate
Sun 03:04:00 AM -3.1821 -66.2987 138° Southeast  Level FlightAware Approximate
Sun 03:05:00 AM -3.2807 -66.2105 138° Southeast  Level FlightAware Approximate
Sun 03:06:00 AM -3.3793 -66.1223 138° Southeast  Level FlightAware Approximate
Sun 03:07:00 AM -3.4779 -66.0341 138° Southeast  Level FlightAware Approximate
Sun 03:08:00 AM -3.5765 -65.9459 138° Southeast  Level FlightAware Approximate
Sun 03:09:00 AM -3.6751 -65.8576 138° Southeast  Level FlightAware Approximate
Sun 03:10:00 AM -3.7737 -65.7694 138° Southeast  Level FlightAware Approximate
Sun 03:11:00 AM -3.8723 -65.6811 138° Southeast  Level FlightAware Approximate
Sun 03:12:00 AM -3.9708 -65.5928 138° Southeast  Level FlightAware Approximate
Sun 03:13:00 AM -4.0694 -65.5044 138° Southeast  Level FlightAware Approximate
Sun 03:14:00 AM -4.1679 -65.4161 138° Southeast  Level FlightAware Approximate
Sun 03:15:00 AM -4.2664 -65.3277 138° Southeast  Level FlightAware Approximate
Sun 03:16:00 AM -4.3650 -65.2393 138° Southeast  Level FlightAware Approximate
Sun 03:17:00 AM -4.4635 -65.1509 138° Southeast  Level FlightAware Approximate
Sun 03:18:00 AM -4.5620 -65.0625 138° Southeast  Level FlightAware Approximate
Sun 03:19:00 AM -4.6605 -64.9740 138° Southeast  Level FlightAware Approximate
Sun 03:20:00 AM -4.7590 -64.8855 138° Southeast  Level FlightAware Approximate
Sun 03:21:00 AM -4.8574 -64.7970 138° Southeast  Level FlightAware Approximate
Sun 03:22:00 AM -4.9559 -64.7085 138° Southeast  Level FlightAware Approximate
Sun 03:23:00 AM -5.0543 -64.6199 138° Southeast  Level FlightAware Approximate
Sun 03:24:00 AM -5.1527 -64.5313 138° Southeast  Level FlightAware Approximate
Sun 03:25:00 AM -5.2512 -64.4427 138° Southeast  Level FlightAware Approximate
Sun 03:26:00 AM -5.3496 -64.3540 138° Southeast  Level FlightAware Approximate
Sun 03:27:00 AM -5.4480 -64.2653 138° Southeast  Level FlightAware Approximate
Sun 03:28:00 AM -5.5463 -64.1766 138° Southeast  Level FlightAware Approximate
Sun 03:29:00 AM -5.6447 -64.0879 138° Southeast  Level FlightAware Approximate
Sun 03:30:00 AM -5.7431 -63.9991 138° Southeast  Level FlightAware Approximate
Sun 03:31:00 AM -5.8414 -63.9103 138° Southeast  Level FlightAware Approximate
Sun 03:32:00 AM -5.9397 -63.8215 138° Southeast  Level FlightAware Approximate
Sun 03:33:00 AM -6.0380 -63.7326 138° Southeast  Level FlightAware Approximate
Sun 03:34:00 AM -6.1363 -63.6437 138° Southeast  Level FlightAware Approximate
Sun 03:35:00 AM -6.2346 -63.5548 138° Southeast  Level FlightAware Approximate
Sun 03:36:00 AM -6.3329 -63.4659 138° Southeast  Level FlightAware Approximate
Sun 03:37:00 AM -6.4311 -63.3769 138° Southeast  Level FlightAware Approximate
Sun 03:38:00 AM -6.5294 -63.2878 138° Southeast  Level FlightAware Approximate
Sun 03:39:00 AM -6.6276 -63.1988 138° Southeast  Level FlightAware Approximate
Sun 03:40:00 AM -6.7258 -63.1097 138° Southeast  Level FlightAware Approximate
Sun 03:41:00 AM -6.8240 -63.0205 138° Southeast  Level FlightAware Approximate
Sun 03:42:00 AM -6.9222 -62.9314 138° Southeast  Level FlightAware Approximate
Sun 03:43:00 AM -7.0203 -62.8422 138° Southeast  Level FlightAware Approximate
Sun 03:44:00 AM -7.1185 -62.7529 138° Southeast  Level FlightAware Approximate
Sun 03:45:00 AM -7.2166 -62.6636 138° Southeast  Level FlightAware Approximate
Sun 03:46:00 AM -7.3147 -62.5743 138° Southeast  Level FlightAware Approximate
Sun 03:47:00 AM -7.4128 -62.4850 138° Southeast  Level FlightAware Approximate
Sun 03:48:00 AM -7.5109 -62.3955 138° Southeast  Level FlightAware Approximate
Sun 03:49:00 AM -7.6089 -62.3061 138° Southeast  Level FlightAware Approximate
Sun 03:50:00 AM -7.7069 -62.2166 138° Southeast  Level FlightAware Approximate
Sun 03:51:00 AM -7.8050 -62.1271 138° Southeast  Level FlightAware Approximate
Sun 03:52:00 AM -7.9030 -62.0375 138° Southeast  Level FlightAware Approximate
Sun 03:53:00 AM -8.0009 -61.9479 138° Southeast  Level FlightAware Approximate
Sun 03:54:00 AM -8.0989 -61.8583 138° Southeast  Level FlightAware Approximate
Sun 03:55:00 AM -8.1968 -61.7686 138° Southeast  Level FlightAware Approximate
Sun 03:56:00 AM -8.2944 -61.6792 138° Southeast  Level FlightAware Approximate
Sun 03:57:00 AM -8.3920 -61.5897 138° Southeast  Level FlightAware Approximate
Sun 03:58:00 AM -8.4895 -61.5002 138° Southeast  Level FlightAware Approximate
Sun 03:59:00 AM -8.5870 -61.4106 138° Southeast  Level FlightAware Approximate
Sun 04:00:00 AM -8.6845 -61.3210 138° Southeast  Level FlightAware Approximate
Sun 04:01:00 AM -8.7820 -61.2314 138° Southeast  Level FlightAware Approximate
Sun 04:02:00 AM -8.8794 -61.1417 138° Southeast  Level FlightAware Approximate
Sun 04:03:00 AM -8.9768 -61.0519 138° Southeast  Level FlightAware Approximate
Sun 04:04:00 AM -9.0743 -60.9621 138° Southeast  Level FlightAware Approximate
Sun 04:05:00 AM -9.1716 -60.8723 138° Southeast  Level FlightAware Approximate
Sun 04:06:00 AM -9.2690 -60.7824 138° Southeast  Level FlightAware Approximate
Sun 04:07:00 AM -9.3663 -60.6925 138° Southeast  Level FlightAware Approximate
Sun 04:08:00 AM -9.4636 -60.6025 138° Southeast  Level FlightAware Approximate
Sun 04:09:00 AM -9.5609 -60.5124 138° Southeast  Level FlightAware Approximate
Sun 04:10:00 AM -9.6582 -60.4224 138° Southeast  Level FlightAware Approximate
Sun 04:11:00 AM -9.7555 -60.3322 138° Southeast  Level FlightAware Approximate
Sun 04:12:00 AM -9.8527 -60.2420 138° Southeast  Level FlightAware Approximate
Sun 04:13:00 AM -9.9499 -60.1517 138° Southeast  Level FlightAware Approximate
Sun 04:14:00 AM -10.0471 -60.0614 138° Southeast  Level FlightAware Approximate
Sun 04:15:00 AM -10.1442 -59.9711 138° Southeast  Level FlightAware Approximate
Sun 04:16:00 AM -10.2413 -59.8807 138° Southeast  Level FlightAware Approximate
Sun 04:17:00 AM -10.3386 -59.7900 137° Southeast  Level FlightAware Approximate
Sun 04:18:00 AM -10.4359 -59.6993 137° Southeast  Level FlightAware Approximate
Sun 04:19:00 AM -10.5331 -59.6086 137° Southeast  Level FlightAware Approximate
Sun 04:20:00 AM -10.6303 -59.5178 137° Southeast  Level FlightAware Approximate
Sun 04:21:00 AM -10.7275 -59.4269 137° Southeast  Level FlightAware Approximate
Sun 04:22:00 AM -10.8246 -59.3360 137° Southeast  Level FlightAware Approximate
Sun 04:23:00 AM -10.9217 -59.2450 137° Southeast  Level FlightAware Approximate
Sun 04:24:00 AM -11.0188 -59.1540 137° Southeast  Level FlightAware Approximate
Sun 04:25:00 AM -11.1159 -59.0629 137° Southeast  Level FlightAware Approximate
Sun 04:26:00 AM -11.2129 -58.9717 137° Southeast  Level FlightAware Approximate
Sun 04:27:00 AM -11.3099 -58.8805 137° Southeast  Level FlightAware Approximate
Sun 04:28:00 AM -11.4069 -58.7892 137° Southeast  Level FlightAware Approximate
Sun 04:29:00 AM -11.5038 -58.6979 137° Southeast  Level FlightAware Approximate
Sun 04:30:00 AM -11.6008 -58.6065 137° Southeast  Level FlightAware Approximate
Sun 04:31:00 AM -11.6977 -58.5150 137° Southeast  Level FlightAware Approximate
Sun 04:32:00 AM -11.7945 -58.4235 137° Southeast  Level FlightAware Approximate
Sun 04:33:00 AM -11.8914 -58.3319 137° Southeast  Level FlightAware Approximate
Sun 04:34:00 AM -11.9882 -58.2402 137° Southeast  Level FlightAware Approximate
Sun 04:35:00 AM -12.0850 -58.1485 137° Southeast  Level FlightAware Approximate
Sun 04:36:00 AM -12.1817 -58.0567 137° Southeast  Level FlightAware Approximate
Sun 04:37:00 AM -12.2784 -57.9649 137° Southeast  Level FlightAware Approximate
Sun 04:38:00 AM -12.3751 -57.8729 137° Southeast  Level FlightAware Approximate
Sun 04:39:00 AM -12.4718 -57.7809 137° Southeast  Level FlightAware Approximate
Sun 04:40:00 AM -12.5684 -57.6889 137° Southeast  Level FlightAware Approximate
Sun 04:41:00 AM -12.6650 -57.5967 137° Southeast  Level FlightAware Approximate
Sun 04:42:00 AM -12.7615 -57.5046 137° Southeast  Level FlightAware Approximate
Sun 04:43:00 AM -12.8581 -57.4123 137° Southeast  Level FlightAware Approximate
Sun 04:44:00 AM -12.9546 -57.3199 137° Southeast  Level FlightAware Approximate
Sun 04:45:00 AM -13.0510 -57.2275 137° Southeast  Level FlightAware Approximate
Sun 04:46:00 AM -13.1475 -57.1350 137° Southeast  Level FlightAware Approximate
Sun 04:47:00 AM -13.2439 -57.0425 137° Southeast  Level FlightAware Approximate
Sun 04:48:00 AM -13.3402 -56.9498 137° Southeast  Level FlightAware Approximate
Sun 04:49:00 AM -13.4366 -56.8571 137° Southeast  Level FlightAware Approximate
Sun 04:50:00 AM -13.5329 -56.7643 137° Southeast  Level FlightAware Approximate
Sun 04:51:00 AM -13.6291 -56.6715 137° Southeast  Level FlightAware Approximate
Sun 04:52:00 AM -13.7254 -56.5785 137° Southeast  Level FlightAware Approximate
Sun 04:53:00 AM -13.8215 -56.4855 137° Southeast  Level FlightAware Approximate
Sun 04:54:00 AM -13.9177 -56.3924 137° Southeast  Level FlightAware Approximate
Sun 04:55:00 AM -14.0138 -56.2993 137° Southeast  Level FlightAware Approximate
Sun 04:56:00 AM -14.1099 -56.2060 137° Southeast  Level FlightAware Approximate
Sun 04:57:00 AM -14.2060 -56.1127 137° Southeast  Level FlightAware Approximate
Sun 04:58:00 AM -14.3020 -56.0193 137° Southeast  Level FlightAware Approximate
Sun 04:59:00 AM -14.3980 -55.9258 137° Southeast  Level FlightAware Approximate
Sun 05:00:00 AM -14.4939 -55.8323 137° Southeast  Level FlightAware Approximate
Sun 05:01:00 AM -14.5898 -55.7386 137° Southeast  Level FlightAware Approximate
Sun 05:02:00 AM -14.6857 -55.6449 137° Southeast  Level FlightAware Approximate
Sun 05:03:00 AM -14.7815 -55.5511 137° Southeast  Level FlightAware Approximate
Sun 05:04:00 AM -14.8773 -55.4572 137° Southeast  Level FlightAware Approximate
Sun 05:05:00 AM -14.9731 -55.3633 137° Southeast  Level FlightAware Approximate
Sun 05:06:00 AM -15.0688 -55.2692 137° Southeast  Level FlightAware Approximate
Sun 05:07:00 AM -15.1644 -55.1750 136° Southeast  Level FlightAware Approximate
Sun 05:08:00 AM -15.2601 -55.0808 136° Southeast  Level FlightAware Approximate
Sun 05:09:00 AM -15.3557 -54.9865 136° Southeast  Level FlightAware Approximate
Sun 05:10:00 AM -15.4513 -54.8921 136° Southeast  Level FlightAware Approximate
Sun 05:11:00 AM -15.5468 -54.7976 136° Southeast  Level FlightAware Approximate
Sun 05:12:00 AM -15.6423 -54.7030 136° Southeast  Level FlightAware Approximate
Sun 05:13:00 AM -15.7377 -54.6084 136° Southeast  Level FlightAware Approximate
Sun 05:14:00 AM -15.8331 -54.5136 136° Southeast  Level FlightAware Approximate
Sun 05:15:00 AM -15.9284 -54.4188 136° Southeast  Level FlightAware Approximate
Sun 05:16:00 AM -16.0238 -54.3239 136° Southeast  Level FlightAware Approximate
Sun 05:17:00 AM -16.1190 -54.2289 136° Southeast  Level FlightAware Approximate
Sun 05:18:00 AM -16.2143 -54.1337 136° Southeast  Level FlightAware Approximate
Sun 05:19:00 AM -16.3095 -54.0385 136° Southeast  Level FlightAware Approximate
Sun 05:20:00 AM -16.4046 -53.9432 136° Southeast  Level FlightAware Approximate
Sun 05:21:00 AM -16.4997 -53.8479 136° Southeast  Level FlightAware Approximate
Sun 05:22:00 AM -16.5948 -53.7524 136° Southeast  Level FlightAware Approximate
Sun 05:23:00 AM -16.6898 -53.6568 136° Southeast  Level FlightAware Approximate
Sun 05:24:00 AM -16.7847 -53.5611 136° Southeast  Level FlightAware Approximate
Sun 05:25:00 AM -16.8797 -53.4654 136° Southeast  Level FlightAware Approximate
Sun 05:26:00 AM -16.9746 -53.3695 136° Southeast  Level FlightAware Approximate
Sun 05:27:00 AM -17.0694 -53.2735 136° Southeast  Level FlightAware Approximate
Sun 05:28:00 AM -17.1642 -53.1775 136° Southeast  Level FlightAware Approximate
Sun 05:29:00 AM -17.2589 -53.0813 136° Southeast  Level FlightAware Approximate
Sun 05:30:00 AM -17.3536 -52.9850 136° Southeast  Level FlightAware Approximate
Sun 05:31:00 AM -17.4483 -52.8887 136° Southeast  Level FlightAware Approximate
Sun 05:32:00 AM -17.5429 -52.7922 136° Southeast  Level FlightAware Approximate
Sun 05:33:00 AM -17.6375 -52.6957 136° Southeast  Level FlightAware Approximate
Sun 05:34:00 AM -17.7320 -52.5990 136° Southeast  Level FlightAware Approximate
Sun 05:35:00 AM -17.8265 -52.5022 136° Southeast  Level FlightAware Approximate
Sun 05:36:00 AM -17.9210 -52.4052 136° Southeast  Level FlightAware Approximate
Sun 05:37:00 AM -18.0156 -52.3081 136° Southeast  Level FlightAware Approximate
Sun 05:38:00 AM -18.1101 -52.2108 136° Southeast  Level FlightAware Approximate
Sun 05:39:00 AM -18.2045 -52.1135 136° Southeast  Level FlightAware Approximate
Sun 05:40:00 AM -18.2989 -52.0160 136° Southeast  Level FlightAware Approximate
Sun 05:41:00 AM -18.3932 -51.9185 136° Southeast  Level FlightAware Approximate
Sun 05:42:00 AM -18.4875 -51.8208 136° Southeast  Level FlightAware Approximate
Sun 05:43:00 AM -18.5818 -51.7230 135° Southeast  Level FlightAware Approximate
Sun 05:44:00 AM -18.6760 -51.6251 135° Southeast  Level FlightAware Approximate
Sun 05:45:00 AM -18.7701 -51.5272 135° Southeast  Level FlightAware Approximate
Sun 05:45:32 AM -19.3040 -50.3790 135° Southeast 477 549 39,000  Level FlightAware ADS-B
Sun 05:46:00 AM -18.8642 -51.4291 135° Southeast  Level FlightAware Approximate
Sun 05:46:42 AM -19.4300 -50.2610 139° Southeast 477 549 39,000  Level FlightAware ADS-B
Sun 05:47:07 AM -19.4570 -50.2290 132° Southeast 476 548 39,000  Level FlightAware ADS-B
Sun 05:48:07 AM -19.4960 -50.1980 143° Southeast 476 548 39,000  Level FlightAware ADS-B
Sun 05:48:42 AM -19.6320 -50.0570 136° Southeast 39,000  Level FlightAware ADS-B
Sun 05:49:37 AM -19.4940 -50.1990 316° Northwest 479 551 39,000  Level FlightAware ADS-B
Sun 05:50:27 AM -19.8040 -49.8900 137° Southeast 482 555 39,000  Level FlightAware ADS-B
Sun 05:51:17 AM -19.8910 -49.8040 137° Southeast 481 554 39,000  Level FlightAware ADS-B
Sun 05:51:52 AM -19.9520 -49.7450 138° Southeast 479 551 39,000  Level FlightAware ADS-B
Sun 05:52:22 AM -19.9960 -49.7010 137° Southeast 479 551 39,000  Level FlightAware ADS-B
Sun 05:53:32 AM -20.1130 -49.5870 138° Southeast 479 551 39,000  Level FlightAware ADS-B
Sun 05:54:22 AM -20.1960 -49.5050 137° Southeast 476 548 39,000  Level FlightAware ADS-B
Sun 05:55:07 AM -20.2640 -49.4380 137° Southeast 473 544 39,000  Level FlightAware ADS-B
Sun 05:55:57 AM -20.3510 -49.3520 137° Southeast 475 547 39,000  Level FlightAware ADS-B
Sun 05:56:47 AM -20.4270 -49.2770 137° Southeast 475 547 39,000 -976 Level FlightAware ADS-B
Sun 05:58:07 AM -20.5610 -49.1440 137° Southeast 39,000 -998 Level FlightAware ADS-B
Sun 05:58:37 AM -20.6070 -49.0980 137° Southeast 39,000 -1,035 Level FlightAware ADS-B
Sun 05:59:32 AM -20.7040 -49.0020 137° Southeast 39,000 -1,050 Level FlightAware ADS-B
Sun 06:00:07 AM -20.7520 -48.9530 136° Southeast 39,000 -1,079 Level FlightAware ADS-B
Sun 06:00:47 AM -20.8240 -48.8810 137° Southeast 39,000 -1,098 Level FlightAware ADS-B
Sun 06:02:42 AM -21.0130 -48.6920 137° Southeast 39,000 -1,120 Level FlightAware ADS-B
Sun 06:03:22 AM -21.0800 -48.6250 137° Southeast 39,000 -1,190 Level FlightAware ADS-B
Sun 06:04:12 AM -21.1580 -48.5470 137° Southeast 39,000 -1,217 Level FlightAware ADS-B
Sun 06:04:42 AM -21.2090 -48.4950 136° Southeast 39,000 -1,251 Level FlightAware ADS-B
Sun 06:05:47 AM -21.3120 -48.3910 137° Southeast 39,000 -1,273 Level FlightAware ADS-B
Sun 06:07:07 AM -21.4440 -48.2580 137° Southeast 39,000 -1,323 Level FlightAware ADS-B
Sun 06:07:42 AM -21.5020 -48.1990 137° Southeast 39,000 -1,390 Level FlightAware ADS-B
Sun 06:08:32 AM -21.5710 -48.1290 137° Southeast 39,000 -1,422 Level FlightAware ADS-B
Sun 06:09:07 AM -21.6390 -48.0600 137° Southeast 39,000 -1,470 Level FlightAware ADS-B
Sun 06:09:57 AM -21.7190 -47.9790 137° Southeast 39,000 -1,505 Level FlightAware ADS-B
Sun 06:10:47 AM -21.7950 -47.9010 136° Southeast 38,100 -1,559 Descending FlightAware ADS-B
Sun 06:11:27 AM -21.8620 -47.8330 137° Southeast 37,100 -1,576 Descending FlightAware ADS-B
Sun 06:12:37 AM -21.9810 -47.7110 136° Southeast 33,900 -1,579 Descending FlightAware ADS-B
Sun 06:13:17 AM -22.0430 -47.6480 137° Southeast 32,500 -1,513 Descending FlightAware ADS-B
Sun 06:13:52 AM -22.1050 -47.5840 136° Southeast 31,100 -1,494 Descending FlightAware ADS-B
Sun 06:14:47 AM -22.1920 -47.4950 137° Southeast 29,200 -1,467 Descending FlightAware ADS-B
Sun 06:15:17 AM -22.2380 -47.4470 136° Southeast 28,200 -1,437 Descending FlightAware ADS-B
Sun 06:15:57 AM -22.2980 -47.3860 137° Southeast 26,900 -1,421 Descending FlightAware ADS-B
Sun 06:16:37 AM -22.3590 -47.3220 136° Southeast 25,600 -1,401 Descending FlightAware ADS-B
Sun 06:17:07 AM -22.4040 -47.2760 137° Southeast 24,600 -1,379 Descending FlightAware ADS-B
Sun 06:17:52 AM -22.4710 -47.2070 136° Southeast 23,100 -1,360 Descending FlightAware ADS-B
Sun 06:19:27 AM -22.6160 -47.0780 141° Southeast 19,900 -1,329 Descending FlightAware ADS-B
Sun 06:20:17 AM -22.7050 -47.0400 159° South 18,300 -1,250 Descending FlightAware ADS-B
Sun 06:21:12 AM -22.8010 -47.0000 159° South 16,500 -1,208 Descending FlightAware ADS-B
Sun 06:21:52 AM -22.8710 -46.9700 158° South 15,200 -1,151 Descending FlightAware ADS-B
Sun 06:23:02 AM -22.9890 -46.9200 159° South 12,700 -1,104 Descending FlightAware ADS-B
Sun 06:23:47 AM -23.0650 -46.8870 158° South 11,200 -987 Descending FlightAware ADS-B
Sun 06:24:32 AM -23.1380 -46.8560 159° South 9,900 -908 Descending FlightAware ADS-B
Sun 06:24:57 AM -23.1760 -46.8400 159° South 9,800 -838 Descending FlightAware ADS-B
Sun 06:25:22 AM -23.2090 -46.8260 159° South 9,800 -867 Level FlightAware ADS-B
Sun 06:27:00 AM -23.3307 -46.6318 137° Southeast  Level Estimated
Sun 06:27:07 AM -23.3300 -46.7740 137° Southeast 7,900  Level FlightAware ADS-B
Sun 06:27:27 AM -23.3520 -46.7650 159° South 7,500 -864 Descending FlightAware ADS-B
Sun 06:27:52 AM -23.3780 -46.7520 155° Southeast 6,900 -845 Descending FlightAware ADS-B
Sun 06:28:17 AM -23.3990 -46.7350 143° Southeast 6,500 -800 Descending FlightAware ADS-B
Sun 06:28:37 AM -23.4150 -46.7200 139° Southeast 6,000 -787 Descending FlightAware ADS-B
Sun 06:29:37 AM -23.4580 -46.6740 136° Southeast 5,200 -737 Descending FlightAware ADS-B
Sun 06:30:02 AM -23.4700 -46.6480 117° Southeast 4,700 -720 Descending FlightAware ADS-B
Sun 06:30:32 AM -23.4810 -46.6200 113° Southeast 4,500 -660 Descending FlightAware ADS-B
Sun 06:31:07 AM -23.4760 -46.5860 81° East 4,300 -706 Descending FlightAware ADS-B
Sun 06:31:22 AM -23.4720 -46.5710 74° East 4,000 -800 Descending FlightAware ADS-B
Sun 06:32:02 AM -23.4640 -46.5410 74° East 3,400 -750 Descending FlightAware ADS-B
Sun 06:32:27 AM -23.4600 -46.5230 76° East 3,100 -675 Descending FlightAware ADS-B
Sun 06:32:57 AM -23.4540 -46.5030 72° East 2,700 -655 Descending FlightAware ADS-B
Sun 06:33:22 AM -23.4500 -46.4870 75° East 2,500 -480 Descending FlightAware ADS-B

Login

Don't have an account? Register now (free) for customized features, flight alerts, and more!